Time;durP1;ratioP1;P1;durP2;ratioP2;P2;SDS_P1;SDS_P2;PMS_P1;PMS_P2;Temp;Humidity;BMP_temperature;BMP_pressure;BME280_temperature;BME280_humidity;BME280_pressure;Samples;Min_cycle;Max_cycle;Signal;HPM_P1;HPM_P2
2022/03/11 00:01:53;;;;;;;20.08;13.48;;;;;;;;;;5027127;28;20045;-73
2022/03/11 00:04:19;;;;;;;18.58;12.73;;;;;;;;;;5027733;28;20040;-73
2022/03/11 00:06:45;;;;;;;19.77;13.52;;;9.10;99.90;;;;;;5027722;28;20026;-73
2022/03/11 00:09:12;;;;;;;24.10;13.93;;;;;;;;;;5029564;28;20400;-73
2022/03/11 00:11:38;;;;;;;18.55;11.90;;;;;;;;;;5029162;28;20029;-72
2022/03/11 00:14:04;;;;;;;18.52;12.38;;;9.20;99.90;;;;;;5026892;28;20034;-73
2022/03/11 00:16:30;;;;;;;16.88;11.57;;;;;;;;;;5027175;28;20404;-73
2022/03/11 00:18:56;;;;;;;17.70;11.63;;;;;;;;;;5027823;28;20648;-73
2022/03/11 00:21:22;;;;;;;17.95;11.88;;;;;;;;;;5029249;28;20119;-73
2022/03/11 00:23:48;;;;;;;18.67;12.60;;;9.80;99.90;;;;;;5031103;28;20032;-73
2022/03/11 00:26:14;;;;;;;16.63;11.63;;;;;;;;;;5026565;28;20033;-73
2022/03/11 00:28:40;;;;;;;16.80;11.50;;;8.90;99.90;;;;;;5027363;28;20052;-73
2022/03/11 00:31:06;;;;;;;19.08;11.55;;;8.80;99.90;;;;;;5026615;28;21710;-73
2022/03/11 00:33:32;;;;;;;19.08;11.82;;;;;;;;;;5027484;28;20034;-73
2022/03/11 00:35:58;;;;;;;17.27;11.85;;;8.70;99.90;;;;;;5030092;28;20026;-73
2022/03/11 00:38:25;;;;;;;18.88;10.98;;;9.70;99.90;;;;;;5027798;28;20025;-73
2022/03/11 00:40:56;;;;;;;16.92;10.43;;;9.00;99.90;;;;;;5027029;28;20382;-73
2022/03/11 00:43:28;;;;;;;14.80;10.10;;;9.40;99.90;;;;;;5027219;28;20029;-73
2022/03/11 00:45:59;;;;;;;15.75;9.90;;;9.20;99.90;;;;;;5027094;28;20079;-73
2022/03/11 00:48:28;;;;;;;15.73;9.77;;;9.40;99.90;;;;;;5026900;28;20038;-73
2022/03/11 00:50:59;;;;;;;16.77;9.90;;;9.60;99.90;;;;;;5029092;28;20025;-73
2022/03/11 00:53:29;;;;;;;15.15;9.82;;;9.40;99.90;;;;;;5027879;28;20025;-73
2022/03/11 00:55:59;;;;;;;16.38;9.48;;;9.60;99.90;;;;;;5028777;28;20036;-73
2022/03/11 00:58:28;;;;;;;14.57;9.07;;;9.50;99.90;;;;;;5028817;28;20036;-72
2022/03/11 01:01:01;;;;;;;15.35;9.50;;;9.20;99.90;;;;;;5026011;28;20040;-73
2022/03/11 01:03:35;;;;;;;14.55;9.25;;;9.00;99.90;;;;;;5011700;28;20112;-72
2022/03/11 01:06:04;;;;;;;14.57;9.23;;;10.00;99.90;;;;;;5028882;28;20036;-73
2022/03/11 01:08:30;;;;;;;12.80;8.25;;;9.30;99.90;;;;;;5029230;28;20036;-73
2022/03/11 01:11:00;;;;;;;12.65;9.07;;;9.30;99.90;;;;;;5026413;28;20022;-72
2022/03/11 01:13:29;;;;;;;11.37;7.67;;;9.40;99.90;;;;;;5026504;28;20028;-73
2022/03/11 01:16:01;;;;;;;13.23;8.38;;;8.60;99.90;;;;;;5026660;28;20557;-74
2022/03/11 01:18:29;;;;;;;12.68;7.60;;;9.00;99.90;;;;;;5010746;28;20030;-74
2022/03/11 01:20:59;;;;;;;12.88;8.52;;;8.90;99.90;;;;;;5029858;28;20455;-73
2022/03/11 01:23:28;;;;;;;11.77;8.10;;;9.50;99.90;;;;;;5027176;28;20554;-73
2022/03/11 01:25:54;;;;;;;12.30;8.57;;;;;;;;;;5026446;28;20029;-73
2022/03/11 01:28:24;;;;;;;11.90;8.07;;;9.60;99.90;;;;;;5026225;28;20488;-73
2022/03/11 01:30:50;;;;;;;10.85;7.78;;;9.60;99.90;;;;;;5025325;28;20021;-73
2022/03/11 01:33:17;;;;;;;12.70;7.80;;;9.70;99.90;;;;;;5027583;28;20041;-73
2022/03/11 01:35:43;;;;;;;12.27;8.20;;;;;;;;;;5028223;28;20120;-73
2022/03/11 01:38:09;;;;;;;10.57;7.63;;;10.90;99.90;;;;;;5026064;28;20037;-73
2022/03/11 01:40:35;;;;;;;10.35;6.70;;;;;;;;;;5028105;28;20044;-73
2022/03/11 01:43:00;;;;;;;10.88;7.03;;;8.90;99.90;;;;;;5027996;28;20087;-73
2022/03/11 01:45:26;;;;;;;12.18;7.45;;;9.20;99.90;;;;;;5026035;28;20029;-72
2022/03/11 01:47:52;;;;;;;11.55;7.95;;;;;;;;;;5025223;28;20025;-73
2022/03/11 01:50:18;;;;;;;12.05;7.90;;;9.10;99.90;;;;;;5025634;28;20029;-73
2022/03/11 01:52:44;;;;;;;13.02;8.15;;;;;;;;;;5025852;28;20108;-72
2022/03/11 01:55:10;;;;;;;11.85;7.22;;;9.80;99.90;;;;;;5025826;28;20037;-73
2022/03/11 01:57:37;;;;;;;11.73;6.97;;;9.70;99.90;;;;;;5025773;28;20022;-73
2022/03/11 02:00:05;;;;;;;11.27;7.20;;;9.00;99.90;;;;;;5027579;28;20037;-73
2022/03/11 02:02:31;;;;;;;12.05;7.22;;;10.40;99.90;;;;;;5027930;28;20029;-73
2022/03/11 02:04:57;;;;;;;11.38;7.53;;;9.80;99.90;;;;;;5025319;28;20040;-73
2022/03/11 02:07:23;;;;;;;11.50;7.57;;;9.00;99.90;;;;;;5028122;28;20025;-73
2022/03/11 02:09:50;;;;;;;12.02;7.75;;;;;;;;;;5025147;28;20060;-73
2022/03/11 02:12:29;;;;;;;10.85;7.65;;;9.90;99.90;;;;;;5026855;28;20108;-73
2022/03/11 02:14:55;;;;;;;12.48;8.15;;;9.00;99.90;;;;;;5024684;28;20057;-73
2022/03/11 02:17:21;;;;;;;12.43;7.57;;;9.30;99.90;;;;;;5026498;28;20037;-72
2022/03/11 02:19:47;;;;;;;12.52;7.88;;;;;;;;;;5027204;28;20026;-72
2022/03/11 02:22:16;;;;;;;11.73;8.05;;;10.10;99.90;;;;;;5025275;28;20049;-73
2022/03/11 02:24:42;;;;;;;13.13;7.32;;;;;;;;;;5025670;28;20080;-73
2022/03/11 02:27:08;;;;;;;14.15;8.20;;;;;;;;;;5027542;28;20080;-72
2022/03/11 02:29:34;;;;;;;11.80;8.65;;;10.00;99.90;;;;;;5026187;28;20026;-73
2022/03/11 02:31:59;;;;;;;12.38;7.80;;;9.70;99.90;;;;;;5025947;28;20511;-73
2022/03/11 02:34:25;;;;;;;12.77;7.55;;;9.30;99.90;;;;;;5025226;28;20017;-72
2022/03/11 02:36:51;;;;;;;13.30;7.97;;;9.30;99.90;;;;;;5025412;28;20032;-73
2022/03/11 02:39:17;;;;;;;12.32;7.97;;;;;;;;;;5026843;28;20073;-73
2022/03/11 02:41:45;;;;;;;13.07;8.63;;;;;;;;;;5027446;28;20057;-73
2022/03/11 02:44:11;;;;;;;13.98;9.40;;;;;;;;;;5029614;28;20021;-73
2022/03/11 02:46:37;;;;;;;13.88;9.40;;;10.10;99.90;;;;;;5029026;28;20091;-73
2022/03/11 02:49:03;;;;;;;13.38;9.05;;;;;;;;;;5029097;28;20037;-72
2022/03/11 02:51:29;;;;;;;13.30;9.18;;;9.60;99.90;;;;;;5028614;28;20033;-73
2022/03/11 02:53:55;;;;;;;13.02;8.15;;;9.80;99.90;;;;;;5031523;28;20516;-73
2022/03/11 02:56:21;;;;;;;13.65;9.23;;;9.60;99.90;;;;;;5029126;28;20079;-73
2022/03/11 02:58:47;;;;;;;15.10;9.70;;;;;;;;;;5027644;28;20105;-73
2022/03/11 03:01:13;;;;;;;16.45;9.73;;;;;;;;;;5030773;28;20099;-73
2022/03/11 03:03:39;;;;;;;14.98;10.60;;;10.20;99.90;;;;;;5028322;28;20401;-73
2022/03/11 03:06:05;;;;;;;17.63;12.02;;;10.20;99.90;;;;;;5029806;28;20037;-73
2022/03/11 03:08:32;;;;;;;16.50;10.98;;;9.80;99.90;;;;;;5029901;28;20026;-73
2022/03/11 03:10:58;;;;;;;17.77;10.75;;;10.10;99.90;;;;;;5029019;28;20483;-72
2022/03/11 03:13:24;;;;;;;18.73;11.93;;;10.10;99.90;;;;;;5029286;28;20365;-73
2022/03/11 03:15:50;;;;;;;17.45;11.63;;;9.90;99.90;;;;;;5029012;28;20577;-73
2022/03/11 03:18:16;;;;;;;18.08;11.82;;;9.30;99.90;;;;;;5030066;28;20033;-73
2022/03/11 03:20:42;;;;;;;19.40;11.35;;;9.20;99.90;;;;;;5030701;28;20059;-73
2022/03/11 03:23:08;;;;;;;19.35;11.10;;;;;;;;;;5028255;28;20033;-74
2022/03/11 03:25:34;;;;;;;23.42;12.55;;;9.50;99.90;;;;;;5028629;28;20052;-73
2022/03/11 03:28:00;;;;;;;21.00;13.48;;;9.30;99.90;;;;;;5027679;28;20053;-73
2022/03/11 03:30:26;;;;;;;19.50;11.88;;;10.30;99.90;;;;;;5028714;28;20017;-73
2022/03/11 03:32:51;;;;;;;19.55;12.43;;;10.10;99.90;;;;;;5031492;28;20025;-73
2022/03/11 03:35:17;;;;;;;19.02;12.48;;;9.30;99.90;;;;;;5028548;28;20033;-73
2022/03/11 03:37:43;;;;;;;22.52;12.95;;;;;;;;;;5027973;28;20105;-73
2022/03/11 03:40:10;;;;;;;24.83;14.10;;;10.20;99.90;;;;;;5028186;28;20033;-73
2022/03/11 03:42:36;;;;;;;21.52;14.07;;;9.30;99.90;;;;;;5030084;28;20042;-72
2022/03/11 03:45:03;;;;;;;25.60;13.68;;;10.00;99.90;;;;;;5030798;28;20033;-73
2022/03/11 03:47:29;;;;;;;21.25;13.48;;;;;;;;;;5030408;28;20029;-72
2022/03/11 03:49:55;;;;;;;22.85;13.93;;;10.20;99.90;;;;;;5028249;28;20049;-73
2022/03/11 03:52:21;;;;;;;21.50;13.68;;;9.90;99.90;;;;;;5027634;28;20064;-72
2022/03/11 03:54:47;;;;;;;21.77;14.35;;;10.10;99.90;;;;;;5028506;28;20022;-73
2022/03/11 03:57:13;;;;;;;23.88;14.73;;;;;;;;;;5029889;28;20440;-72
2022/03/11 03:59:39;;;;;;;20.90;13.82;;;9.30;99.90;;;;;;5031310;28;20033;-73
2022/03/11 04:02:05;;;;;;;22.70;13.93;;;10.10;99.90;;;;;;5027143;28;20053;-73
2022/03/11 04:04:32;;;;;;;22.63;13.35;;;;;;;;;;5027424;28;20380;-73
2022/03/11 04:06:58;;;;;;;21.88;13.88;;;;;;;;;;5029520;28;20044;-73
2022/03/11 04:09:24;;;;;;;20.50;13.57;;;10.30;99.90;;;;;;5027839;28;20030;-73
2022/03/11 04:11:50;;;;;;;21.63;14.55;;;;;;;;;;5062209;28;20083;-73
2022/03/11 04:14:15;;;;;;;20.52;12.35;;;11.40;99.90;;;;;;5029079;28;20030;-73
2022/03/11 04:16:42;;;;;;;22.23;14.48;;;10.20;99.90;;;;;;5028291;28;20029;-73
2022/03/11 04:19:08;;;;;;;19.05;12.88;;;;;;;;;;5029087;28;20030;-73
2022/03/11 04:21:34;;;;;;;20.08;13.05;;;;;;;;;;5028201;28;20038;-73
2022/03/11 04:24:01;;;;;;;19.52;13.90;;;;;;;;;;5030011;28;20024;-73
2022/03/11 04:26:27;;;;;;;19.10;12.93;;;;;;;;;;5028002;28;20386;-73
2022/03/11 04:28:53;;;;;;;17.85;12.40;;;10.10;99.90;;;;;;5026812;28;20033;-72
2022/03/11 04:31:18;;;;;;;16.63;11.07;;;9.60;99.90;;;;;;5029064;28;20033;-72
2022/03/11 04:33:44;;;;;;;18.42;10.82;;;;;;;;;;5028435;28;20021;-73
2022/03/11 04:36:11;;;;;;;15.48;10.05;;;9.50;99.90;;;;;;5029748;28;20528;-72
2022/03/11 04:38:37;;;;;;;17.05;11.18;;;;;;;;;;5027969;28;20033;-74
2022/03/11 04:41:03;;;;;;;17.73;11.27;;;9.90;99.90;;;;;;5026794;28;20115;-73
2022/03/11 04:43:29;;;;;;;17.05;11.23;;;;;;;;;;5028106;28;20504;-73
2022/03/11 04:45:55;;;;;;;16.52;13.15;;;;;;;;;;5027038;28;20033;-73
2022/03/11 04:48:21;;;;;;;16.10;11.27;;;10.20;99.90;;;;;;5027648;28;20026;-74
2022/03/11 04:50:47;;;;;;;17.35;10.60;;;10.00;99.90;;;;;;5029683;28;20028;-73
2022/03/11 04:53:13;;;;;;;18.50;12.57;;;;;;;;;;5028799;28;20037;-73
2022/03/11 04:55:39;;;;;;;17.05;10.75;;;10.30;99.90;;;;;;5025158;28;20056;-73
2022/03/11 04:58:05;;;;;;;18.27;11.40;;;;;;;;;;5026581;28;20037;-72
2022/03/11 05:00:30;;;;;;;15.10;9.52;;;9.40;99.90;;;;;;5028238;28;20099;-74
2022/03/11 05:02:58;;;;;;;16.75;11.48;;;;;;;;;;5030020;28;20618;-72
2022/03/11 05:05:25;;;;;;;21.80;12.43;;;;;;;;;;5027708;28;20067;-73
2022/03/11 05:07:51;;;;;;;12.65;9.52;;;10.40;99.90;;;;;;5026356;28;20029;-73
2022/03/11 05:10:17;;;;;;;14.73;10.45;;;10.30;99.90;;;;;;5026048;28;20068;-73
2022/03/11 05:12:43;;;;;;;17.45;11.13;;;;;;;;;;5027042;28;20021;-77
2022/03/11 05:15:10;;;;;;;15.27;10.35;;;9.90;99.90;;;;;;5028592;28;20503;-74
2022/03/11 05:17:36;;;;;;;14.48;10.98;;;10.40;99.90;;;;;;5030277;28;20030;-74
2022/03/11 05:20:05;;;;;;;14.73;10.77;;;10.30;99.90;;;;;;5025967;28;20488;-75
2022/03/11 05:22:32;;;;;;;15.48;9.98;;;10.50;99.90;;;;;;5019344;28;20739;-74
2022/03/11 05:24:58;;;;;;;12.80;8.90;;;;;;;;;;5028273;28;20021;-74
2022/03/11 05:27:24;;;;;;;14.10;9.07;;;;;;;;;;5028057;28;20041;-75
2022/03/11 05:29:50;;;;;;;13.95;8.80;;;10.60;99.90;;;;;;5031726;28;20025;-74
2022/03/11 05:32:16;;;;;;;15.68;9.18;;;10.10;99.90;;;;;;5026780;28;20091;-75
2022/03/11 05:34:43;;;;;;;14.68;9.63;;;12.00;99.90;;;;;;5026945;28;20071;-74
2022/03/11 05:37:10;;;;;;;14.52;9.25;;;10.10;99.90;;;;;;5026003;28;20033;-73
2022/03/11 05:39:36;;;;;;;14.35;8.65;;;9.60;99.90;;;;;;5025723;28;20025;-73
2022/03/11 05:42:02;;;;;;;13.00;8.25;;;10.60;99.90;;;;;;5029123;28;20052;-73
2022/03/11 05:44:28;;;;;;;14.30;9.90;;;10.20;99.90;;;;;;5027291;28;20038;-73
2022/03/11 05:46:55;;;;;;;15.50;10.30;;;;;;;;;;5026259;28;20447;-73
2022/03/11 05:49:21;;;;;;;13.43;9.55;;;10.00;99.90;;;;;;5025706;28;20408;-73
2022/03/11 05:51:47;;;;;;;12.85;9.60;;;9.70;99.90;;;;;;5025743;28;20026;-74
2022/03/11 05:54:12;;;;;;;15.32;9.10;;;10.20;99.90;;;;;;5027903;28;20515;-74
2022/03/11 05:56:38;;;;;;;15.07;9.95;;;9.90;99.90;;;;;;5027077;28;20037;-75
2022/03/11 05:59:04;;;;;;;13.23;9.30;;;;;;;;;;5028229;28;20559;-73
2022/03/11 06:01:34;;;;;;;12.27;9.27;;;9.90;99.90;;;;;;5027196;28;20045;-74
2022/03/11 06:04:01;;;;;;;13.20;9.30;;;10.10;99.90;;;;;;5025783;28;20040;-73
2022/03/11 06:06:27;;;;;;;17.83;10.35;;;10.10;99.90;;;;;;5026783;28;20477;-73
2022/03/11 06:08:53;;;;;;;14.27;9.65;;;;;;;;;;5024952;28;20033;-72
2022/03/11 06:11:21;;;;;;;17.90;9.77;;;;;;;;;;5026012;28;20448;-75
2022/03/11 06:13:49;;;;;;;15.13;9.25;;;10.60;99.90;;;;;;5026222;28;20124;-75
2022/03/11 06:16:15;;;;;;;13.40;8.65;;;11.40;99.90;;;;;;5025568;28;20032;-73
2022/03/11 06:18:41;;;;;;;15.18;8.73;;;9.70;99.90;;;;;;5028324;28;20049;-74
2022/03/11 06:21:08;;;;;;;14.20;9.18;;;9.80;99.90;;;;;;5030104;28;20073;-74
2022/03/11 06:23:35;;;;;;;13.80;9.45;;;10.90;99.90;;;;;;5035633;28;20500;-73
2022/03/11 06:26:02;;;;;;;13.75;9.40;;;11.80;99.90;;;;;;5029778;28;20033;-74
2022/03/11 06:28:28;;;;;;;12.18;7.63;;;11.50;99.90;;;;;;5030908;28;20025;-74
2022/03/11 06:30:54;;;;;;;12.80;7.15;;;;;;;;;;5030585;28;20032;-74
2022/03/11 06:33:23;;;;;;;13.13;8.85;;;;;;;;;;5031054;28;20075;-74
2022/03/11 06:35:50;;;;;;;14.32;9.30;;;10.80;99.90;;;;;;5031722;28;20065;-76
2022/03/11 06:38:16;;;;;;;13.43;8.90;;;10.60;99.90;;;;;;5030038;28;20037;-75
2022/03/11 06:40:42;;;;;;;13.82;8.73;;;10.20;99.90;;;;;;5028499;28;20104;-76
2022/03/11 06:43:08;;;;;;;16.48;8.30;;;10.70;99.90;;;;;;5028919;28;20579;-75
2022/03/11 06:45:33;;;;;;;13.43;8.68;;;10.50;99.90;;;;;;5029260;28;20112;-75
2022/03/11 06:47:59;;;;;;;13.63;7.80;;;10.10;99.90;;;;;;5031883;28;20780;-75
2022/03/11 06:50:25;;;;;;;13.13;7.97;;;11.20;99.90;;;;;;5030131;28;20026;-75
2022/03/11 06:52:51;;;;;;;11.40;7.80;;;10.50;99.90;;;;;;5028918;28;20033;-75
2022/03/11 06:55:17;;;;;;;15.10;7.70;;;11.20;99.90;;;;;;5028758;28;20041;-76
2022/03/11 06:57:44;;;;;;;14.35;7.55;;;;;;;;;;5031141;28;20092;-75
2022/03/11 07:00:12;;;;;;;11.88;7.78;;;11.10;99.90;;;;;;5030955;28;20781;-75
2022/03/11 07:02:39;;;;;;;13.75;8.18;;;11.00;99.90;;;;;;5030516;28;20055;-75
2022/03/11 07:05:09;;;;;;;13.00;7.63;;;11.10;99.90;;;;;;5028776;28;20029;-75
2022/03/11 07:07:35;;;;;;;12.13;7.50;;;;;;;;;;5029207;28;20026;-75
2022/03/11 07:10:03;;;;;;;10.18;7.13;;;10.50;99.90;;;;;;5028734;28;20014;-76
2022/03/11 07:12:31;;;;;;;11.52;7.30;;;13.10;99.90;;;;;;5028661;28;20037;-76
2022/03/11 07:14:59;;;;;;;13.07;9.32;;;10.70;99.90;;;;;;5032124;28;20009;-75
2022/03/11 07:17:25;;;;;;;10.57;7.75;;;11.10;99.90;;;;;;5030948;28;20041;-76
2022/03/11 07:19:51;;;;;;;13.50;8.40;;;10.30;99.90;;;;;;5019814;28;20026;-75
2022/03/11 07:22:17;;;;;;;15.40;8.80;;;;;;;;;;5018950;28;20033;-75
2022/03/11 07:24:44;;;;;;;12.63;9.10;;;10.20;99.90;;;;;;5028339;28;20149;-73
2022/03/11 07:27:10;;;;;;;13.88;9.25;;;;;;;;;;5030361;28;20496;-74
2022/03/11 07:29:36;;;;;;;14.10;8.20;;;10.30;99.90;;;;;;5030960;28;20025;-74
2022/03/11 07:32:02;;;;;;;13.45;9.05;;;10.40;99.90;;;;;;5029570;28;20032;-73
2022/03/11 07:34:28;;;;;;;16.15;9.07;;;10.60;99.90;;;;;;5025297;28;20037;-75
2022/03/11 07:36:54;;;;;;;13.00;8.65;;;12.80;99.90;;;;;;5027349;28;20546;-74
2022/03/11 07:39:20;;;;;;;13.38;8.65;;;10.90;99.90;;;;;;5030016;28;20030;-75
2022/03/11 07:41:46;;;;;;;12.35;8.63;;;11.80;99.90;;;;;;5030786;28;20408;-75
2022/03/11 07:44:13;;;;;;;12.15;7.90;;;11.20;99.90;;;;;;5028228;28;20025;-75
2022/03/11 07:46:39;;;;;;;13.20;7.60;;;10.70;99.90;;;;;;5027988;28;20120;-75
2022/03/11 07:49:05;;;;;;;12.57;7.05;;;;;;;;;;5027723;28;20041;-74
2022/03/11 07:51:31;;;;;;;10.32;7.30;;;11.10;99.90;;;;;;5030305;28;20026;-75
2022/03/11 07:53:57;;;;;;;11.75;7.57;;;12.90;99.90;;;;;;5032115;28;20392;-75
2022/03/11 07:56:24;;;;;;;13.10;8.43;;;;;;;;;;5029893;28;20030;-75
2022/03/11 07:58:50;;;;;;;16.70;8.52;;;10.70;99.90;;;;;;5027651;28;20033;-74
2022/03/11 08:01:16;;;;;;;15.32;9.07;;;11.30;99.90;;;;;;5026839;28;20049;-74
2022/03/11 08:03:42;;;;;;;13.88;8.80;;;11.20;99.90;;;;;;5029338;28;20036;-76
2022/03/11 08:06:09;;;;;;;19.63;9.75;;;10.70;99.90;;;;;;5028686;28;20064;-76
2022/03/11 08:08:37;;;;;;;17.38;9.20;;;10.60;99.90;;;;;;5030610;28;20676;-75
2022/03/11 08:11:04;;;;;;;16.08;9.82;;;11.20;99.90;;;;;;5027572;28;20034;-76
2022/03/11 08:13:30;;;;;;;17.02;10.40;;;11.00;99.90;;;;;;5027396;28;20033;-74
2022/03/11 08:15:56;;;;;;;16.17;10.52;;;11.50;99.90;;;;;;5027924;28;20431;-76
2022/03/11 08:18:22;;;;;;;17.02;10.30;;;11.40;99.90;;;;;;5029459;28;20029;-76
2022/03/11 08:20:48;;;;;;;16.35;10.10;;;10.00;99.90;;;;;;5030676;28;20041;-74
2022/03/11 08:23:14;;;;;;;21.23;10.57;;;10.40;99.90;;;;;;5029186;28;20508;-75
2022/03/11 08:25:41;;;;;;;14.40;10.40;;;11.10;99.90;;;;;;5027436;28;20086;-75
2022/03/11 08:28:10;;;;;;;15.18;9.63;;;12.10;99.90;;;;;;5028578;28;20471;-75
2022/03/11 08:30:37;;;;;;;15.23;10.32;;;11.90;99.90;;;;;;5026468;28;20064;-76
2022/03/11 08:33:04;;;;;;;20.40;11.80;;;11.10;99.90;;;;;;5029850;28;20030;-77
2022/03/11 08:35:30;;;;;;;14.40;10.30;;;;;;;;;;5029447;28;20036;-77
2022/03/11 08:37:56;;;;;;;21.25;12.02;;;11.00;99.90;;;;;;5027021;28;20542;-77
2022/03/11 08:40:24;;;;;;;17.58;11.70;;;;;;;;;;5025461;28;20120;-77
2022/03/11 08:42:50;;;;;;;19.35;11.77;;;10.50;99.90;;;;;;5029084;28;20407;-77
2022/03/11 08:45:18;;;;;;;21.95;12.73;;;10.20;99.90;;;;;;5029154;28;20032;-77
2022/03/11 08:47:44;;;;;;;17.90;12.80;;;11.30;99.90;;;;;;5028707;28;20028;-77
2022/03/11 08:50:10;;;;;;;19.42;12.90;;;10.60;99.90;;;;;;5026822;28;20474;-77
2022/03/11 08:52:36;;;;;;;23.17;13.25;;;11.10;99.90;;;;;;5034431;28;20108;-77
2022/03/11 08:55:02;;;;;;;24.52;13.65;;;11.10;99.90;;;;;;5034473;28;20104;-76
2022/03/11 08:57:28;;;;;;;22.10;13.18;;;;;;;;;;5026269;28;20077;-77
2022/03/11 08:59:56;;;;;;;22.25;14.35;;;;;;;;;;5029541;28;20428;-76
2022/03/11 09:02:22;;;;;;;23.77;14.57;;;10.30;99.90;;;;;;5025436;28;20127;-77
2022/03/11 09:04:49;;;;;;;25.30;16.30;;;11.10;99.90;;;;;;5029171;28;20031;-77
2022/03/11 09:07:15;;;;;;;24.42;14.43;;;10.40;99.90;;;;;;5026566;28;20127;-77
2022/03/11 09:09:41;;;;;;;24.77;13.80;;;13.20;99.90;;;;;;5029144;28;20018;-77
2022/03/11 09:12:07;;;;;;;19.67;13.30;;;12.80;99.90;;;;;;5031158;28;20033;-77
2022/03/11 09:14:33;;;;;;;25.60;16.10;;;;;;;;;;5030726;28;20480;-77
2022/03/11 09:17:00;;;;;;;29.45;17.23;;;11.00;99.90;;;;;;5028888;28;20056;-77
2022/03/11 09:19:25;;;;;;;26.88;13.63;;;11.10;99.90;;;;;;5027961;28;20028;-77
2022/03/11 09:21:51;;;;;;;26.00;15.15;;;10.50;99.90;;;;;;5026447;28;20029;-77
2022/03/11 09:24:17;;;;;;;28.27;14.57;;;;;;;;;;5028541;28;20960;-77
2022/03/11 09:26:48;;;;;;;28.48;15.55;;;11.70;99.90;;;;;;5030364;28;20112;-77
2022/03/11 09:29:14;;;;;;;31.65;14.73;;;;;;;;;;5026872;28;20080;-75
2022/03/11 09:31:40;;;;;;;27.55;13.70;;;10.50;99.90;;;;;;5026352;28;20022;-75
2022/03/11 09:34:05;;;;;;;28.75;15.63;;;10.60;99.90;;;;;;5026390;28;20028;-76
2022/03/11 09:36:31;;;;;;;22.10;12.68;;;;;;;;;;5027321;28;20037;-74
2022/03/11 09:38:57;;;;;;;26.58;14.00;;;10.20;99.90;;;;;;5029495;28;20026;-75
2022/03/11 09:41:25;;;;;;;23.30;13.38;;;11.20;99.90;;;;;;5028350;28;20830;-76
2022/03/11 09:43:52;;;;;;;28.90;15.57;;;11.40;99.90;;;;;;5028402;28;20443;-76
2022/03/11 09:46:18;;;;;;;27.33;14.32;;;10.90;99.90;;;;;;5026163;28;20017;-77
2022/03/11 09:48:44;;;;;;;21.52;12.38;;;11.00;99.90;;;;;;5025712;28;20033;-78
2022/03/11 09:51:11;;;;;;;22.98;13.75;;;11.70;99.90;;;;;;5028247;28;20068;-77
2022/03/11 09:53:37;;;;;;;21.67;12.95;;;11.70;99.90;;;;;;5026938;28;20109;-77
2022/03/11 09:56:04;;;;;;;21.55;11.77;;;11.20;99.90;;;;;;5026688;28;20149;-77
2022/03/11 09:58:30;;;;;;;23.00;12.52;;;12.60;99.90;;;;;;5025419;28;20030;-77
2022/03/11 10:00:56;;;;;;;18.25;10.82;;;11.50;99.90;;;;;;5027513;28;20144;-77
2022/03/11 10:03:23;;;;;;;18.17;10.07;;;11.30;99.90;;;;;;5027894;28;20041;-77
2022/03/11 10:05:54;;;;;;;20.95;10.13;;;11.90;99.90;;;;;;5028716;28;20392;-77
2022/03/11 10:08:50;;;;;;;16.90;9.38;;;12.60;99.90;;;;;;5028412;28;20067;-78
2022/03/11 10:11:24;;;;;;;17.73;9.75;;;12.70;99.90;;;;;;5003425;28;20099;-75
2022/03/11 10:14:02;;;;;;;16.88;9.15;;;12.10;99.90;;;;;;4997417;28;20029;-77
2022/03/11 10:16:30;;;;;;;15.10;8.93;;;12.40;99.90;;;;;;4984589;28;20030;-78
2022/03/11 10:19:10;;;;;;;18.58;8.13;;;12.40;99.90;;;;;;4995379;28;20085;-78
2022/03/11 10:21:38;;;;;;;16.85;8.23;;;12.20;99.90;;;;;;5006173;28;20117;-78
2022/03/11 10:24:10;;;;;;;12.65;7.30;;;12.50;99.90;;;;;;4989907;28;20038;-77
2022/03/11 10:26:43;;;;;;;9.93;5.38;;;13.10;99.90;;;;;;5002896;28;20030;-77
2022/03/11 10:29:12;;;;;;;12.25;5.15;;;12.40;99.90;;;;;;5001882;28;20073;-78
2022/03/11 10:31:40;;;;;;;9.75;4.88;;;12.40;99.90;;;;;;5005309;28;20026;-77
2022/03/11 10:34:27;;;;;;;12.25;5.20;;;12.40;99.90;;;;;;4985895;28;20416;-77
2022/03/11 10:36:56;;;;;;;7.97;4.38;;;12.20;99.90;;;;;;4993534;28;20037;-78
2022/03/11 10:39:26;;;;;;;10.38;4.10;;;12.00;99.90;;;;;;5002556;28;20042;-78
2022/03/11 10:41:53;;;;;;;8.73;3.50;;;11.80;99.90;;;;;;5004053;28;20038;-79
2022/03/11 10:44:28;;;;;;;13.60;3.35;;;13.00;99.90;;;;;;5004964;28;20046;-79
2022/03/11 10:47:23;;;;;;;8.73;2.80;;;12.60;99.90;;;;;;5002118;28;20041;-77
2022/03/11 10:49:50;;;;;;;7.75;2.28;;;12.80;99.90;;;;;;5021845;28;20057;-77
2022/03/11 10:52:28;;;;;;;7.80;1.70;;;13.50;99.90;;;;;;5026467;28;20033;-77
2022/03/11 10:54:54;;;;;;;6.57;1.92;;;;;;;;;;5025775;28;20022;-78
2022/03/11 10:57:21;;;;;;;6.18;1.90;;;;;;;;;;5027015;28;20500;-77
2022/03/11 10:59:47;;;;;;;7.15;2.00;;;12.90;99.90;;;;;;5028002;28;20064;-78
2022/03/11 11:02:14;;;;;;;10.60;2.15;;;13.00;99.90;;;;;;5025162;28;20073;-78
2022/03/11 11:04:42;;;;;;;9.93;2.13;;;12.70;99.90;;;;;;5026801;28;20018;-78
2022/03/11 11:07:08;;;;;;;10.10;2.58;;;;;;;;;;5029870;28;20584;-81
2022/03/11 11:09:34;;;;;;;10.43;2.25;;;12.80;99.90;;;;;;5029685;28;20084;-77
2022/03/11 11:12:00;;;;;;;12.65;1.83;;;13.00;99.90;;;;;;5030601;28;20031;-79
2022/03/11 11:14:26;;;;;;;7.03;1.55;;;;;;;;;;5064282;28;20109;-79
2022/03/11 11:16:55;;;;;;;8.48;1.60;;;12.50;99.90;;;;;;5029102;28;20045;-80
2022/03/11 11:19:24;;;;;;;12.90;1.55;;;12.40;99.90;;;;;;5028884;28;20040;-80
2022/03/11 11:21:51;;;;;;;7.53;1.20;;;12.30;99.90;;;;;;5030505;28;20033;-78
2022/03/11 11:24:21;;;;;;;8.55;1.55;;;12.30;99.90;;;;;;5030306;28;20396;-78
2022/03/11 11:26:56;;;;;;;9.10;1.33;;;11.90;99.90;;;;;;5046832;28;20568;-78
2022/03/11 11:29:27;;;;;;;11.07;1.92;;;11.10;99.90;;;;;;5028294;28;20116;-79
2022/03/11 11:31:54;;;;;;;11.93;1.58;;;12.60;99.90;;;;;;5033631;28;20441;-78
2022/03/11 11:34:37;;;;;;;9.77;1.33;;;12.70;99.90;;;;;;5029227;28;20042;-78
2022/03/11 11:37:06;;;;;;;6.97;1.08;;;12.60;99.90;;;;;;5028141;28;20029;-79
2022/03/11 11:39:42;;;;;;;5.43;0.82;;;12.70;99.90;;;;;;5028584;28;20067;-78
2022/03/11 11:42:13;;;;;;;7.95;1.10;;;12.70;99.90;;;;;;5030917;28;20034;-78
2022/03/11 11:44:40;;;;;;;;;;;13.00;99.90;;;;;;5030584;28;20026;-79
2022/03/11 11:47:22;;;;;;;6.18;1.10;;;15.50;99.90;;;;;;5029930;28;19920;-79
2022/03/11 11:49:51;;;;;;;6.65;1.08;;;17.10;99.90;;;;;;5028807;28;20073;-81
2022/03/11 11:52:36;;;;;;;6.13;1.58;;;16.40;91.10;;;;;;5028273;28;20033;-78
2022/03/11 11:55:19;;;;;;;6.38;0.90;;;16.20;91.10;;;;;;5030978;28;20081;-78
2022/03/11 11:57:46;;;;;;;5.68;0.95;;;13.50;99.10;;;;;;5031133;28;20104;-78
2022/03/11 12:00:26;;;;;;;8.65;1.05;;;15.70;99.90;;;;;;5030299;28;20058;-78
2022/03/11 12:02:53;;;;;;;5.22;0.80;;;15.80;99.90;;;;;;5031433;28;20519;-77
2022/03/11 12:05:58;;;;;;;5.22;0.90;;;18.70;99.70;;;;;;5028379;28;20179;-78
2022/03/11 12:08:39;;;;;;;5.28;1.00;;;17.60;79.30;;;;;;5008693;28;20041;-76
2022/03/11 12:11:06;;;;;;;6.35;1.02;;;;;;;;;;5005488;28;20026;-77
2022/03/11 12:13:36;;;;;;;3.88;0.93;;;23.20;77.30;;;;;;5008069;28;20056;-78
2022/03/11 12:16:03;;;;;;;7.43;1.33;;;23.60;62.50;;;;;;5008425;28;20407;-79
2022/03/11 12:18:42;;;;;;;6.90;1.50;;;26.90;58.30;;;;;;4992328;28;20038;-78
2022/03/11 12:21:25;;;;;;;7.25;1.30;;;24.70;54.00;;;;;;5008774;28;20615;-79
2022/03/11 12:23:51;;;;;;;10.38;1.60;;;;;;;;;;5007933;28;20034;-78
2022/03/11 12:26:17;;;;;;;11.05;2.42;;;;;;;;;;5008472;28;20531;-78
2022/03/11 12:28:44;;;;;;;12.98;1.80;;;28.10;56.60;;;;;;5007783;28;20029;-81
2022/03/11 12:31:21;;;;;;;9.48;1.85;;;26.30;41.70;;;;;;5007700;28;20109;-79
2022/03/11 12:33:48;;;;;;;11.82;1.80;;;27.00;40.70;;;;;;5007339;28;20045;-79
2022/03/11 12:36:21;;;;;;;11.43;1.80;;;27.00;41.70;;;;;;5007851;28;20386;-79
2022/03/11 12:38:47;;;;;;;11.13;1.75;;;27.50;39.30;;;;;;5009512;28;20062;-79
2022/03/11 12:41:16;;;;;;;8.98;1.80;;;26.20;43.00;;;;;;5026665;28;20140;-79
2022/03/11 12:43:44;;;;;;;11.63;1.90;;;27.30;42.70;;;;;;5026516;28;20026;-79
2022/03/11 12:46:11;;;;;;;10.20;2.10;;;28.70;39.30;;;;;;5027324;28;20116;-79
2022/03/11 12:48:39;;;;;;;15.45;2.13;;;29.40;35.20;;;;;;5027422;28;20029;-79
2022/03/11 12:51:18;;;;;;;12.88;2.00;;;29.50;35.10;;;;;;5030139;28;20041;-79
2022/03/11 12:53:46;;;;;;;12.45;2.35;;;29.00;38.40;;;;;;5028962;28;20396;-77
2022/03/11 12:56:12;;;;;;;14.68;2.15;;;27.70;37.10;;;;;;5027472;28;20064;-77
2022/03/11 12:58:38;;;;;;;12.65;1.88;;;26.10;39.70;;;;;;5027105;28;20029;-77
2022/03/11 13:01:08;;;;;;;11.05;1.63;;;25.20;41.90;;;;;;5026911;28;20081;-78
2022/03/11 13:03:36;;;;;;;16.67;2.33;;;24.00;41.60;;;;;;5029105;28;20041;-76